Time;durP1;ratioP1;P1;durP2;ratioP2;P2;SDS_P1;SDS_P2;PMS_P1;PMS_P2;Temp;Humidity;BMP_temperature;BMP_pressure;BME280_temperature;BME280_humidity;BME280_pressure;Samples;Min_cycle;Max_cycle;Signal;HPM_P1;HPM_P2
2022/12/11 00:00:16;;;;;;;15.60;10.20;;;;;;;-1.49;100.00;95303.29;105412;1304;79376;-83
2022/12/11 00:03:04;;;;;;;15.10;10.40;;;;;;;-1.49;100.00;95303.71;105520;1305;22670;-84
2022/12/11 00:05:33;;;;;;;13.40;9.40;;;;;;;-1.47;100.00;95302.02;105534;1304;26500;-84
2022/12/11 00:08:02;;;;;;;14.80;10.20;;;;;;;-1.48;100.00;95292.13;104533;1288;1334023;-84
2022/12/11 00:10:31;;;;;;;17.30;12.30;;;;;;;-1.51;100.00;95292.73;105492;1290;61631;-84
2022/12/11 00:12:59;;;;;;;16.40;10.90;;;;;;;-1.50;100.00;95288.42;105518;1287;22519;-84
2022/12/11 00:15:28;;;;;;;15.20;11.30;;;;;;;-1.50;100.00;95288.46;105518;1301;22465;-84
2022/12/11 00:17:57;;;;;;;15.80;11.20;;;;;;;-1.49;100.00;95282.80;105542;1304;22474;-84
2022/12/11 00:20:28;;;;;;;14.90;10.20;;;;;;;-1.50;100.00;95284.31;105496;1291;23941;-84
2022/12/11 00:22:56;;;;;;;16.30;11.10;;;;;;;-1.49;100.00;95287.48;105522;1304;23252;-84
2022/12/11 00:25:25;;;;;;;17.40;11.70;;;;;;;-1.50;100.00;95282.27;105522;1301;23874;-84
2022/12/11 00:27:53;;;;;;;16.00;11.00;;;;;;;-1.49;100.00;95278.92;105545;1304;22523;-84
2022/12/11 00:30:22;;;;;;;15.60;10.70;;;;;;;-1.48;100.00;95281.27;105513;1303;37347;-85
2022/12/11 00:32:52;;;;;;;15.10;10.50;;;;;;;-1.48;100.00;95281.38;105559;1290;24582;-84
2022/12/11 00:35:21;;;;;;;18.50;11.70;;;;;;;-1.48;100.00;95277.38;105517;1305;22497;-85
2022/12/11 00:37:49;;;;;;;16.90;11.50;;;;;;;-1.49;100.00;95272.73;105579;1287;22513;-84
2022/12/11 00:40:18;;;;;;;17.40;11.70;;;;;;;-1.49;100.00;95272.37;103693;1304;2563234;-84
2022/12/11 00:42:46;;;;;;;17.40;12.10;;;;;;;-1.50;100.00;95270.42;105571;1304;22474;-84
2022/12/11 00:45:18;;;;;;;16.50;11.00;;;;;;;-1.50;100.00;95272.36;105559;1298;22494;-84
2022/12/11 00:47:47;;;;;;;16.90;11.20;;;;;;;-1.50;100.00;95266.80;105513;1304;25588;-85
2022/12/11 00:50:16;;;;;;;16.40;10.40;;;;;;;-1.51;100.00;95264.13;105586;1297;25043;-84
2022/12/11 00:52:44;;;;;;;16.80;10.90;;;;;;;-1.50;100.00;95270.16;105537;1302;22463;-84
2022/12/11 00:55:15;;;;;;;15.40;9.90;;;;;;;-1.50;100.00;95268.91;105569;1304;22664;-84
2022/12/11 00:57:43;;;;;;;16.90;11.00;;;;;;;-1.50;100.00;95268.52;105522;1304;24265;-84
2022/12/11 01:00:14;;;;;;;14.20;9.90;;;;;;;-1.50;100.00;95269.28;105477;1304;22487;-84
2022/12/11 01:02:42;;;;;;;16.00;10.30;;;;;;;-1.51;100.00;95267.98;105538;1304;22508;-85
2022/12/11 01:05:11;;;;;;;13.90;10.30;;;;;;;-1.50;100.00;95265.96;105550;1304;26222;-84
2022/12/11 01:07:42;;;;;;;16.00;11.00;;;;;;;-1.49;100.00;95267.58;105522;1304;22523;-84
2022/12/11 01:10:23;;;;;;;;;;;;;;;-1.48;100.00;95267.02;105722;1304;22433;-84
2022/12/11 01:12:53;;;;;;;15.20;9.20;;;;;;;-1.49;100.00;95266.54;105718;1303;25478;-84
2022/12/11 01:15:24;;;;;;;16.80;11.20;;;;;;;-1.51;100.00;95273.80;105726;1303;22606;-84
2022/12/11 01:17:53;;;;;;;14.20;9.70;;;;;;;-1.51;100.00;95271.05;105656;1288;22511;-84
2022/12/11 01:20:23;;;;;;;14.40;10.30;;;;;;;-1.50;100.00;95266.11;105734;1303;54538;-84
2022/12/11 01:22:53;;;;;;;14.40;10.00;;;;;;;-1.51;100.00;95262.10;105693;1303;22531;-85
2022/12/11 01:25:22;;;;;;;15.10;10.60;;;;;;;-1.52;100.00;95257.88;105619;1303;23164;-85
2022/12/11 01:27:52;;;;;;;13.70;9.90;;;;;;;-1.51;100.00;95247.34;105793;1304;23153;-84
2022/12/11 01:30:23;;;;;;;16.30;10.50;;;;;;;-1.52;100.00;95247.06;105758;1299;44144;-84
2022/12/11 01:32:51;;;;;;;15.90;11.00;;;;;;;-1.53;100.00;95247.46;105761;1282;22475;-84
2022/12/11 01:35:20;;;;;;;16.70;11.20;;;;;;;-1.52;100.00;95249.36;105622;1296;22540;-84
2022/12/11 01:37:49;;;;;;;17.40;11.80;;;;;;;-1.52;100.00;95256.16;105781;1279;24912;-84
2022/12/11 01:40:19;;;;;;;16.60;11.40;;;;;;;-1.53;100.00;95263.67;105766;1295;22475;-84
2022/12/11 01:42:48;;;;;;;17.20;12.70;;;;;;;-1.53;100.00;95263.27;105816;1304;25229;-84
2022/12/11 01:45:26;;;;;;;15.70;11.00;;;;;;;-1.53;100.00;95262.48;105824;1297;22460;-84
2022/12/11 01:47:59;;;;;;;16.30;10.80;;;;;;;-1.52;100.00;95257.66;105728;1303;48503;-83
2022/12/11 01:50:33;;;;;;;15.60;11.20;;;;;;;-1.51;100.00;95253.31;105604;1301;34904;-84
2022/12/11 01:53:04;;;;;;;16.50;11.40;;;;;;;-1.51;100.00;95251.39;105839;1303;22489;-84
2022/12/11 01:55:33;;;;;;;16.20;10.80;;;;;;;-1.51;100.00;95247.70;105627;1303;23165;-84
2022/12/11 01:58:03;;;;;;;18.50;12.00;;;;;;;-1.50;100.00;95243.30;105645;1279;25416;-83
2022/12/11 02:00:31;;;;;;;17.80;12.00;;;;;;;-1.52;100.00;95239.02;105764;1299;24266;-84
2022/12/11 02:02:59;;;;;;;16.00;11.30;;;;;;;-1.53;100.00;95237.08;105810;1282;25389;-84
2022/12/11 02:05:28;;;;;;;17.30;11.90;;;;;;;-1.53;100.00;95234.05;105647;1303;22516;-84
2022/12/11 02:08:01;;;;;;;15.00;10.50;;;;;;;-1.53;100.00;95232.55;105607;1297;41268;-84
2022/12/11 02:10:38;;;;;;;16.10;10.60;;;;;;;-1.53;100.00;95228.70;105777;1281;22510;-85
2022/12/11 02:13:12;;;;;;;14.00;9.30;;;;;;;-1.55;100.00;95222.89;105810;1304;22468;-84
2022/12/11 02:15:48;;;;;;;12.90;9.30;;;;;;;-1.58;100.00;95219.15;105740;1294;22502;-84
2022/12/11 02:18:27;;;;;;;14.10;9.50;;;;;;;-1.60;100.00;95219.12;105549;1289;25139;-84
2022/12/11 02:21:06;;;;;;;10.80;7.40;;;;;;;-1.63;100.00;95224.08;105538;1305;22508;-84
2022/12/11 02:23:52;;;;;;;12.50;7.50;;;;;;;-1.62;100.00;95219.18;105497;1276;24237;-83
2022/12/11 02:26:44;;;;;;;11.30;8.40;;;;;;;-1.67;100.00;95213.77;105527;1279;22471;-84
2022/12/11 02:29:18;;;;;;;12.50;7.90;;;;;;;-1.70;100.00;95214.37;105492;1284;64787;-84
2022/12/11 02:31:54;;;;;;;12.30;8.30;;;;;;;-1.71;100.00;95210.30;105586;1302;22523;-84
2022/12/11 02:34:29;;;;;;;12.90;7.60;;;;;;;-1.69;100.00;95209.11;105552;1303;22511;-84
2022/12/11 02:37:07;;;;;;;12.70;8.40;;;;;;;-1.67;100.00;95205.98;105535;1297;22476;-84
2022/12/11 02:39:40;;;;;;;11.90;9.00;;;;;;;-1.66;100.00;95212.02;104167;1302;2017293;-83
2022/12/11 02:42:10;;;;;;;12.20;7.90;;;;;;;-1.67;100.00;95216.83;105554;1303;22492;-84
2022/12/11 02:44:41;;;;;;;11.80;8.60;;;;;;;-1.67;100.00;95218.09;105654;1288;22480;-84
2022/12/11 02:47:16;;;;;;;11.50;8.80;;;;;;;-1.64;100.00;95218.12;105808;1304;22468;-84
2022/12/11 02:49:48;;;;;;;13.20;8.30;;;;;;;-1.64;100.00;95217.75;105693;1285;49792;-84
2022/12/11 02:52:20;;;;;;;12.30;8.40;;;;;;;-1.66;100.00;95208.38;105836;1285;22462;-84
2022/12/11 02:54:51;;;;;;;13.30;9.30;;;;;;;-1.67;100.00;95208.52;105643;1297;22470;-83
2022/12/11 02:57:24;;;;;;;13.00;8.90;;;;;;;-1.67;100.00;95199.75;105664;1302;22470;-83
2022/12/11 02:59:53;;;;;;;12.80;9.20;;;;;;;-1.65;100.00;95197.39;105622;1303;53887;-83
2022/12/11 03:02:23;;;;;;;12.10;8.50;;;;;;;-1.63;100.00;95196.62;105818;1302;22467;-84
2022/12/11 03:04:52;;;;;;;14.60;9.60;;;;;;;-1.63;100.00;95192.42;105795;1288;22471;-84
2022/12/11 03:07:24;;;;;;;12.50;8.70;;;;;;;-1.63;100.00;95193.83;105714;1295;22509;-84
2022/12/11 03:09:53;;;;;;;12.80;8.80;;;;;;;-1.64;100.00;95187.27;105719;1296;22518;-84
2022/12/11 03:12:26;;;;;;;12.80;8.70;;;;;;;-1.66;100.00;95186.20;105641;1278;23852;-84
2022/12/11 03:14:58;;;;;;;13.00;9.20;;;;;;;-1.70;100.00;95184.27;105774;1302;22499;-84
2022/12/11 03:17:34;;;;;;;14.30;10.00;;;;;;;-1.71;100.00;95186.09;105831;1304;23081;-84
2022/12/11 03:20:11;;;;;;;13.30;9.80;;;;;;;-1.71;100.00;95188.85;105718;1302;26604;-84
2022/12/11 03:22:45;;;;;;;13.90;10.20;;;;;;;-1.74;100.00;95187.09;105608;1295;22515;-85
2022/12/11 03:25:20;;;;;;;13.90;9.00;;;;;;;-1.72;100.00;95179.01;105664;1288;25280;-85
2022/12/11 03:27:55;;;;;;;13.20;9.20;;;;;;;-1.71;100.00;95174.09;105764;1298;22495;-86
2022/12/11 03:30:27;;;;;;;12.10;8.70;;;;;;;-1.71;100.00;95168.58;105508;1288;22491;-85
2022/12/11 03:33:00;;;;;;;11.50;8.10;;;;;;;-1.70;100.00;95164.48;105595;1296;23447;-85
2022/12/11 03:35:33;;;;;;;12.50;8.60;;;;;;;-1.70;100.00;95152.95;105519;1303;23176;-85
2022/12/11 03:38:06;;;;;;;12.00;7.80;;;;;;;-1.71;100.00;95150.30;105515;1304;24309;-84
2022/12/11 03:40:37;;;;;;;13.00;8.10;;;;;;;-1.74;100.00;95148.91;105650;1302;63222;-84
2022/12/11 03:43:07;;;;;;;13.00;9.20;;;;;;;-1.76;100.00;95153.25;105644;1303;24240;-84
2022/12/11 03:45:39;;;;;;;13.30;8.50;;;;;;;-1.78;100.00;95150.05;105793;1303;22470;-84
2022/12/11 03:48:11;;;;;;;13.60;7.80;;;;;;;-1.81;100.00;95151.73;105726;1302;22465;-85
2022/12/11 03:50:41;;;;;;;12.20;7.50;;;;;;;-1.83;100.00;95149.97;105741;1302;34224;-84
2022/12/11 03:53:11;;;;;;;11.80;7.70;;;;;;;-1.85;100.00;95153.88;105813;1304;22861;-84
2022/12/11 03:55:38;;;;;;;;;;;;;;;-1.87;100.00;95153.13;105811;1303;22436;-84
2022/12/11 03:58:10;;;;;;;13.30;8.30;;;;;;;-1.89;100.00;95152.46;105709;1304;22586;-84
2022/12/11 04:00:38;;;;;;;12.20;8.10;;;;;;;-1.91;100.00;95147.55;105640;1285;22594;-84
2022/12/11 04:03:13;;;;;;;12.10;8.00;;;;;;;-1.93;100.00;95156.98;105770;1303;22454;-85
2022/12/11 04:05:44;;;;;;;12.40;8.40;;;;;;;-1.93;100.00;95159.80;105781;1280;22956;-85
2022/12/11 04:08:13;;;;;;;12.50;9.00;;;;;;;-1.93;100.00;95160.83;105789;1296;22511;-85
2022/12/11 04:10:42;;;;;;;12.40;7.90;;;;;;;-1.93;100.00;95155.84;105594;1282;43310;-85
2022/12/11 04:13:11;;;;;;;13.20;8.70;;;;;;;-1.93;100.00;95157.30;105645;1303;22517;-85
2022/12/11 04:15:40;;;;;;;13.40;9.00;;;;;;;-1.93;100.00;95156.00;105643;1278;23140;-85
2022/12/11 04:26:32;;;;;;;12.00;8.00;;;;;;;-1.93;100.00;95153.55;105664;1303;22477;-85
2022/12/11 04:29:00;;;;;;;11.50;8.00;;;;;;;-1.91;100.00;95158.27;105669;1300;40185;-85
2022/12/11 04:31:29;;;;;;;11.60;7.40;;;;;;;-1.90;100.00;95164.46;105773;1303;23362;-86
2022/12/11 04:33:58;;;;;;;11.10;7.40;;;;;;;-1.88;100.00;95169.38;105640;1303;23858;-85
2022/12/11 04:36:29;;;;;;;9.50;6.10;;;;;;;-1.89;100.00;95166.75;105689;1296;22596;-85
2022/12/11 04:38:58;;;;;;;10.60;7.20;;;;;;;-1.91;100.00;95164.38;105676;1304;101769;-85
2022/12/11 04:41:27;;;;;;;11.90;6.40;;;;;;;-1.92;100.00;95164.27;105678;1291;25213;-85
2022/12/11 04:43:58;;;;;;;10.10;6.80;;;;;;;-1.92;100.00;95158.55;105757;1304;22988;-85
2022/12/11 04:46:27;;;;;;;10.70;7.20;;;;;;;-1.94;100.00;95158.89;105779;1286;24270;-84
2022/12/11 04:48:55;;;;;;;11.50;7.60;;;;;;;-1.94;100.00;95157.02;105723;1275;25944;-85
2022/12/11 04:51:24;;;;;;;11.70;7.70;;;;;;;-1.94;100.00;95154.31;105775;1304;22502;-84
2022/12/11 04:53:53;;;;;;;11.80;8.10;;;;;;;-1.96;100.00;95153.98;105803;1289;22476;-85
2022/12/11 04:56:22;;;;;;;12.90;8.50;;;;;;;-1.97;100.00;95155.46;105802;1296;23211;-85
2022/12/11 04:58:51;;;;;;;12.50;8.10;;;;;;;-1.96;100.00;95157.77;105646;1288;26229;-84
2022/12/11 05:01:22;;;;;;;8.30;5.60;;;;;;;-1.96;100.00;95149.88;105584;1302;22469;-84
2022/12/11 05:03:51;;;;;;;9.30;6.10;;;;;;;-1.98;100.00;95146.25;105813;1279;22591;-84
2022/12/11 05:06:22;;;;;;;10.50;6.90;;;;;;;-2.00;100.00;95145.27;105801;1297;22539;-84
2022/12/11 05:08:50;;;;;;;9.30;6.90;;;;;;;-2.01;100.00;95142.77;105704;1295;72176;-85
2022/12/11 05:11:21;;;;;;;8.60;6.10;;;;;;;-2.03;100.00;95143.36;105651;1282;23730;-85
2022/12/11 05:13:51;;;;;;;9.70;6.20;;;;;;;-2.04;100.00;95136.75;105562;1303;23954;-85
2022/12/11 05:16:23;;;;;;;10.70;6.60;;;;;;;-2.05;100.00;95132.63;105707;1302;24350;-84
2022/12/11 05:18:51;;;;;;;9.40;6.60;;;;;;;-2.07;100.00;95128.60;105686;1302;62758;-85
2022/12/11 05:21:20;;;;;;;9.90;5.90;;;;;;;-2.08;100.00;95124.23;105777;1304;22705;-84
2022/12/11 05:23:48;;;;;;;8.50;6.00;;;;;;;-2.09;100.00;95126.86;105787;1297;23211;-84
2022/12/11 05:26:21;;;;;;;9.70;6.30;;;;;;;-2.09;100.00;95121.41;105788;1303;22716;-85
2022/12/11 05:28:55;;;;;;;7.90;5.60;;;;;;;-2.08;100.00;95123.92;105746;1288;24396;-85
2022/12/11 05:31:25;;;;;;;9.30;6.00;;;;;;;-2.07;100.00;95124.23;105679;1303;22490;-84
2022/12/11 05:33:54;;;;;;;10.10;6.30;;;;;;;-2.07;100.00;95124.72;105648;1302;22549;-84
2022/12/11 05:36:25;;;;;;;8.90;5.50;;;;;;;-2.07;100.00;95116.51;105776;1303;23518;-84
2022/12/11 05:38:54;;;;;;;8.10;5.60;;;;;;;-2.09;100.00;95116.58;105698;1304;38872;-84
2022/12/11 05:41:24;;;;;;;;;;;;;;;-2.09;100.00;95113.36;105659;1297;22497;-83
2022/12/11 05:43:53;;;;;;;10.60;5.60;;;;;;;-2.09;100.00;95108.95;105811;1304;22604;-84
2022/12/11 05:46:24;;;;;;;8.50;5.70;;;;;;;-2.08;100.00;95100.55;105811;1304;23289;-84
2022/12/11 05:49:02;;;;;;;8.50;5.70;;;;;;;-2.06;100.00;95094.23;104239;1279;2042274;-83
2022/12/11 05:51:33;;;;;;;7.80;4.80;;;;;;;-2.05;100.00;95088.90;105802;1294;22480;-84
2022/12/11 05:54:02;;;;;;;7.40;4.60;;;;;;;-2.07;100.00;95088.89;105796;1304;22499;-83
2022/12/11 05:56:33;;;;;;;7.60;4.80;;;;;;;-2.08;100.00;95092.40;105773;1302;25451;-83
2022/12/11 05:59:04;;;;;;;8.60;5.50;;;;;;;-2.10;100.00;95093.04;105579;1303;68576;-82
2022/12/11 06:01:35;;;;;;;8.00;5.40;;;;;;;-2.09;100.00;95096.22;105632;1303;22469;-83
2022/12/11 06:04:05;;;;;;;9.10;5.40;;;;;;;-2.10;100.00;95094.35;105787;1304;22466;-83
2022/12/11 06:06:35;;;;;;;8.30;5.80;;;;;;;-2.12;100.00;95093.79;105773;1304;22547;-83
2022/12/11 06:09:04;;;;;;;11.00;8.10;;;;;;;-2.13;100.00;95098.64;105644;1303;98435;-83
2022/12/11 06:11:35;;;;;;;12.40;8.50;;;;;;;-2.12;100.00;95100.63;105655;1303;22522;-83
2022/12/11 06:14:04;;;;;;;16.40;11.80;;;;;;;-2.12;100.00;95103.33;105795;1302;22673;-83
2022/12/11 06:16:33;;;;;;;8.60;5.50;;;;;;;-2.11;100.00;95103.92;105793;1303;22484;-82
2022/12/11 06:19:02;;;;;;;7.60;5.10;;;;;;;-2.15;100.00;95110.77;105709;1302;53013;-83
2022/12/11 06:21:32;;;;;;;9.40;6.10;;;;;;;-2.18;100.00;95112.54;105794;1298;22675;-83
2022/12/11 06:24:05;;;;;;;8.00;5.50;;;;;;;-2.18;100.00;95114.98;105741;1295;22462;-83
2022/12/11 06:26:34;;;;;;;9.10;6.00;;;;;;;-2.19;100.00;95116.25;105679;1303;22511;-83
2022/12/11 06:29:02;;;;;;;8.80;6.10;;;;;;;-2.22;100.00;95112.02;105684;1275;22485;-83
2022/12/11 06:31:31;;;;;;;9.60;5.80;;;;;;;-2.25;100.00;95106.56;105745;1289;24950;-83
2022/12/11 06:34:00;;;;;;;8.30;5.80;;;;;;;-2.26;100.00;95108.49;105709;1284;23191;-82
2022/12/11 06:36:28;;;;;;;8.60;5.50;;;;;;;-2.26;100.00;95112.80;105792;1302;22482;-83
2022/12/11 06:39:00;;;;;;;12.90;8.00;;;;;;;-2.25;100.00;95111.55;105714;1286;49259;-82
2022/12/11 06:41:29;;;;;;;9.90;7.70;;;;;;;-2.22;100.00;95106.30;105645;1301;22464;-82
2022/12/11 06:43:59;;;;;;;8.70;6.60;;;;;;;-2.20;100.00;95106.89;105636;1303;24936;-82
2022/12/11 06:46:27;;;;;;;7.40;5.10;;;;;;;-2.18;100.00;95108.91;105603;1304;22486;-83
2022/12/11 06:48:56;;;;;;;7.80;4.90;;;;;;;-2.16;100.00;95105.55;105536;1303;22451;-82
2022/12/11 06:51:25;;;;;;;6.90;4.70;;;;;;;-2.17;100.00;95110.73;105774;1302;25669;-82
2022/12/11 06:53:55;;;;;;;6.70;4.70;;;;;;;-2.18;100.00;95118.25;105803;1303;25264;-82
2022/12/11 06:56:28;;;;;;;8.00;5.20;;;;;;;-2.18;100.00;95122.14;105765;1280;22471;-82
2022/12/11 06:58:56;;;;;;;7.90;5.10;;;;;;;-2.19;100.00;95123.80;105582;1302;83118;-81
2022/12/11 07:01:28;;;;;;;6.90;5.30;;;;;;;-2.20;100.00;95120.02;105729;1288;22561;-82
2022/12/11 07:03:59;;;;;;;8.50;5.60;;;;;;;-2.21;100.00;95116.59;105800;1297;22459;-83
2022/12/11 07:06:28;;;;;;;7.60;4.90;;;;;;;-2.21;100.00;95119.81;105647;1295;22489;-82
2022/12/11 07:08:57;;;;;;;7.00;4.90;;;;;;;-2.23;100.00;95118.95;105738;1284;25291;-82
2022/12/11 07:11:26;;;;;;;7.50;5.00;;;;;;;-2.25;100.00;95112.31;105797;1303;22528;-82
2022/12/11 07:13:57;;;;;;;5.30;4.20;;;;;;;-2.25;100.00;95111.73;105787;1302;26009;-82
2022/12/11 07:16:30;;;;;;;5.70;4.00;;;;;;;-2.24;100.00;95108.70;105823;1296;22460;-82
2022/12/11 07:18:59;;;;;;;6.20;3.90;;;;;;;-2.23;100.00;95106.80;105659;1302;26614;-81
2022/12/11 07:21:28;;;;;;;6.10;3.60;;;;;;;-2.24;100.00;95111.58;105679;1303;22462;-81
2022/12/11 07:23:58;;;;;;;5.50;3.60;;;;;;;-2.21;100.00;95121.99;105770;1302;22503;-82
2022/12/11 07:26:29;;;;;;;5.90;3.90;;;;;;;-2.20;100.00;95116.09;105755;1304;24216;-82
2022/12/11 07:29:01;;;;;;;5.90;3.70;;;;;;;-2.20;100.00;95123.66;105733;1287;22497;-82
2022/12/11 07:31:32;;;;;;;6.50;3.70;;;;;;;-2.19;100.00;95129.96;105820;1286;22507;-81
2022/12/11 07:34:03;;;;;;;5.00;3.50;;;;;;;-2.20;100.00;95130.88;105791;1286;22532;-81
2022/12/11 07:36:33;;;;;;;6.70;4.50;;;;;;;-2.23;100.00;95140.70;105787;1302;23737;-81
2022/12/11 07:39:02;;;;;;;7.50;4.30;;;;;;;-2.23;100.00;95143.15;105667;1284;111197;-81
2022/12/11 07:41:31;;;;;;;8.60;5.30;;;;;;;-2.27;100.00;95134.90;105735;1302;22505;-81
2022/12/11 07:44:00;;;;;;;8.20;5.40;;;;;;;-2.29;100.00;95134.52;105722;1303;22944;-81
2022/12/11 07:46:32;;;;;;;7.60;5.20;;;;;;;-2.30;100.00;95138.85;105636;1295;22767;-82
2022/12/11 07:49:01;;;;;;;8.70;5.60;;;;;;;-2.28;100.00;95143.86;105652;1302;56340;-81
2022/12/11 07:51:31;;;;;;;7.30;4.90;;;;;;;-2.26;100.00;95137.99;105813;1292;22459;-81
2022/12/11 07:54:05;;;;;;;8.70;5.90;;;;;;;-2.25;100.00;95154.31;105788;1289;24234;-81
2022/12/11 07:56:35;;;;;;;8.10;5.20;;;;;;;-2.24;100.00;95155.27;105657;1302;25869;-81
2022/12/11 07:59:06;;;;;;;5.60;3.30;;;;;;;-2.26;100.00;95151.79;105568;1295;58754;-82
2022/12/11 08:01:36;;;;;;;9.00;5.70;;;;;;;-2.26;100.00;95144.15;105604;1303;22489;-81
2022/12/11 08:04:05;;;;;;;;;;;;;;;-2.25;100.00;95139.67;105709;1278;26564;-83
2022/12/11 08:06:36;;;;;;;9.90;6.10;;;;;;;-2.23;100.00;95138.98;105717;1288;22482;-82
2022/12/11 08:09:06;;;;;;;9.60;6.30;;;;;;;-2.20;100.00;95143.96;105655;1303;89276;-82
2022/12/11 08:11:34;;;;;;;8.90;6.10;;;;;;;-2.18;100.00;95144.25;105797;1282;23684;-82
2022/12/11 08:14:05;;;;;;;7.40;5.30;;;;;;;-2.15;100.00;95148.77;105749;1302;22480;-82
2022/12/11 08:16:34;;;;;;;8.20;5.40;;;;;;;-2.10;100.00;95148.40;105793;1304;24240;-82
2022/12/11 08:19:03;;;;;;;7.70;5.20;;;;;;;-2.06;100.00;95148.67;105718;1304;57007;-82
2022/12/11 08:21:32;;;;;;;9.20;6.10;;;;;;;-2.04;100.00;95141.90;105682;1297;22513;-83
2022/12/11 08:24:00;;;;;;;9.10;6.00;;;;;;;-2.02;100.00;95140.37;105816;1288;22468;-82
2022/12/11 08:26:30;;;;;;;8.80;5.80;;;;;;;-2.02;100.00;95133.92;105805;1291;25218;-83
2022/12/11 08:29:02;;;;;;;7.60;5.00;;;;;;;-2.02;100.00;95134.02;105696;1286;26850;-83
2022/12/11 08:31:32;;;;;;;10.40;6.70;;;;;;;-2.00;100.00;95127.46;105752;1294;22596;-83
2022/12/11 08:34:00;;;;;;;8.70;5.90;;;;;;;-1.98;100.00;95130.61;105756;1295;22467;-84
2022/12/11 08:36:29;;;;;;;8.70;5.20;;;;;;;-1.97;100.00;95129.91;105791;1288;22503;-83
2022/12/11 08:38:59;;;;;;;8.00;4.80;;;;;;;-1.97;100.00;95130.13;105732;1298;22463;-84
2022/12/11 08:41:29;;;;;;;8.70;5.60;;;;;;;-1.94;100.00;95132.72;105649;1292;21999;-83
2022/12/11 08:44:00;;;;;;;10.50;6.00;;;;;;;-1.88;100.00;95132.48;105784;1294;22469;-83
2022/12/11 08:46:31;;;;;;;10.60;5.80;;;;;;;-1.82;100.00;95135.29;105712;1302;22524;-84
2022/12/11 08:49:00;;;;;;;7.90;5.10;;;;;;;-1.80;100.00;95138.80;105688;1304;38040;-82
2022/12/11 08:51:29;;;;;;;8.40;5.50;;;;;;;-1.77;100.00;95141.54;105788;1302;22544;-82
2022/12/11 08:53:59;;;;;;;7.70;5.50;;;;;;;-1.73;100.00;95146.38;105829;1288;25936;-82
2022/12/11 08:56:28;;;;;;;;;;;;;;;-1.69;100.00;95148.52;105754;1288;23125;-82
2022/12/11 08:58:58;;;;;;;9.40;5.90;;;;;;;-1.70;100.00;95144.52;105714;1294;22937;-82
2022/12/11 09:01:28;;;;;;;13.20;8.00;;;;;;;-1.69;100.00;95151.52;105818;1288;22514;-82
2022/12/11 09:03:57;;;;;;;9.20;6.00;;;;;;;-1.72;100.00;95149.98;105787;1294;23307;-83
2022/12/11 09:06:28;;;;;;;10.10;6.60;;;;;;;-1.77;100.00;95147.51;105780;1294;27041;-83
2022/12/11 09:09:01;;;;;;;10.80;5.70;;;;;;;-1.79;100.00;95147.23;105660;1285;95804;-81
2022/12/11 09:11:34;;;;;;;8.30;5.50;;;;;;;-1.84;100.00;95152.86;105818;1291;22470;-81
2022/12/11 09:14:04;;;;;;;8.20;5.60;;;;;;;-1.81;100.00;95154.72;105777;1295;22472;-82
2022/12/11 09:16:36;;;;;;;9.20;6.00;;;;;;;-1.74;100.00;95159.23;105796;1286;23337;-82
2022/12/11 09:19:06;;;;;;;8.60;6.30;;;;;;;-1.72;100.00;95159.13;105689;1286;22642;-81
2022/12/11 09:21:35;;;;;;;9.50;6.00;;;;;;;-1.72;100.00;95162.96;105742;1296;27741;-82
2022/12/11 09:24:06;;;;;;;8.50;5.90;;;;;;;-1.72;100.00;95157.77;105785;1295;25260;-81
2022/12/11 09:26:36;;;;;;;9.20;5.50;;;;;;;-1.70;100.00;95155.05;105808;1295;22518;-82
2022/12/11 09:29:06;;;;;;;9.90;6.40;;;;;;;-1.68;100.00;95152.73;105727;1290;62889;-82
2022/12/11 09:31:36;;;;;;;8.70;4.90;;;;;;;-1.81;100.00;95157.27;105825;1294;22240;-82
2022/12/11 09:34:08;;;;;;;10.10;6.40;;;;;;;-1.90;100.00;95150.69;105770;1285;22467;-81
2022/12/11 09:36:39;;;;;;;9.20;5.60;;;;;;;-1.90;100.00;95150.73;105789;1304;22521;-80
2022/12/11 09:39:11;;;;;;;9.70;6.50;;;;;;;-1.85;100.00;95143.59;105661;1303;74613;-80
2022/12/11 09:41:53;;;;;;;9.00;6.20;;;;;;;-1.79;100.00;95149.72;105783;1301;22470;-81
2022/12/11 09:44:33;;;;;;;10.20;6.40;;;;;;;-1.70;100.00;95145.65;105807;1303;22479;-83
2022/12/11 09:47:14;;;;;;;9.00;5.80;;;;;;;-1.58;100.00;95144.16;105692;1304;22670;-80
2022/12/11 09:49:48;;;;;;;7.20;4.50;;;;;;;-1.56;100.00;95137.07;105415;1303;58926;-82
2022/12/11 09:52:23;;;;;;;9.60;5.50;;;;;;;-1.61;100.00;95142.92;105579;1304;22484;-82
2022/12/11 09:54:57;;;;;;;8.50;5.30;;;;;;;-1.57;100.00;95144.54;105603;1288;23814;-81
2022/12/11 09:57:39;;;;;;;6.90;4.80;;;;;;;-1.50;100.00;95142.31;105568;1297;22460;-81
2022/12/11 10:00:18;;;;;;;9.70;6.00;;;;;;;-1.52;100.00;95145.52;105518;1290;22822;-81
2022/12/11 10:03:17;;;;;;;6.40;4.00;;;;;;;-1.50;100.00;95150.77;105565;1306;25178;-81
2022/12/11 10:05:57;;;;;;;10.30;6.70;;;;;;;-1.51;100.00;95150.51;105530;1280;22471;-82
2022/12/11 10:08:35;;;;;;;9.60;6.10;;;;;;;-1.61;100.00;95142.97;105520;1293;23501;-82
2022/12/11 10:11:22;;;;;;;9.00;6.40;;;;;;;-1.70;100.00;95143.30;105716;1285;22492;-82
2022/12/11 10:14:05;;;;;;;9.40;5.40;;;;;;;-1.70;100.00;95143.31;105757;1284;22550;-82
2022/12/11 10:16:39;;;;;;;10.50;6.50;;;;;;;-1.82;100.00;95145.20;105807;1282;22504;-83
2022/12/11 10:19:17;;;;;;;11.30;8.00;;;;;;;-1.87;100.00;95139.98;105770;1288;77357;-83
2022/12/11 10:21:51;;;;;;;12.00;8.60;;;;;;;-1.87;100.00;95150.05;105770;1288;24247;-82
2022/12/11 10:24:27;;;;;;;9.30;5.80;;;;;;;-1.95;100.00;95144.65;105801;1288;22464;-81
2022/12/11 10:26:59;;;;;;;8.70;6.10;;;;;;;-1.95;100.00;95141.95;105788;1285;24922;-82
2022/12/11 10:29:29;;;;;;;9.50;5.80;;;;;;;-2.06;100.00;95144.04;105616;1282;101727;-82
2022/12/11 10:31:59;;;;;;;9.20;6.70;;;;;;;-1.95;100.00;95142.34;105750;1288;22513;-82
2022/12/11 10:34:37;;;;;;;9.10;6.40;;;;;;;-1.86;100.00;95151.83;105884;1294;22455;-82
2022/12/11 10:37:07;;;;;;;8.90;5.70;;;;;;;-1.82;100.00;95153.98;105818;1289;22467;-83
2022/12/11 10:39:37;;;;;;;8.30;5.70;;;;;;;-1.73;100.00;95151.58;105672;1297;97255;-82
2022/12/11 10:42:17;;;;;;;9.40;7.00;;;;;;;-1.71;100.00;95152.29;105750;1288;23403;-82
2022/12/11 10:44:58;;;;;;;10.60;6.60;;;;;;;-1.70;100.00;95152.13;105778;1285;22485;-83
2022/12/11 10:47:28;;;;;;;7.90;5.10;;;;;;;-1.58;100.00;95146.92;105630;1296;22618;-82
2022/12/11 10:49:59;;;;;;;8.50;5.70;;;;;;;-1.50;100.00;95145.90;105683;1301;47694;-82
2022/12/11 10:52:31;;;;;;;7.60;5.40;;;;;;;-1.35;100.00;95141.67;105683;1284;23821;-83
2022/12/11 10:55:03;;;;;;;8.50;5.70;;;;;;;-1.24;100.00;95139.61;105774;1282;22472;-82
2022/12/11 10:57:35;;;;;;;8.60;5.70;;;;;;;-1.33;99.80;95129.73;105745;1302;22480;-82
2022/12/11 11:00:08;;;;;;;8.00;5.50;;;;;;;-1.49;99.10;95133.32;105626;1292;93391;-83
2022/12/11 11:02:39;;;;;;;7.90;5.50;;;;;;;-1.67;99.44;95139.24;105776;1279;22512;-83
2022/12/11 11:05:14;;;;;;;9.10;5.80;;;;;;;-1.74;100.00;95141.73;105792;1295;22457;-82
2022/12/11 11:07:43;;;;;;;10.50;6.30;;;;;;;-1.72;100.00;95139.28;105803;1302;22518;-83
2022/12/11 11:10:18;;;;;;;9.00;6.30;;;;;;;-1.61;100.00;95129.48;104284;1295;1862955;-82
2022/12/11 11:12:49;;;;;;;8.50;6.40;;;;;;;-1.47;100.00;95126.43;105791;1296;22622;-82
2022/12/11 11:15:25;;;;;;;8.20;5.40;;;;;;;-1.52;100.00;95120.73;105789;1296;22978;-82
2022/12/11 11:17:56;;;;;;;8.10;5.70;;;;;;;-1.61;100.00;95118.50;105847;1298;22507;-82
2022/12/11 11:20:28;;;;;;;7.60;5.90;;;;;;;-1.60;100.00;95115.19;105789;1296;48846;-83
2022/12/11 11:22:59;;;;;;;8.00;5.80;;;;;;;-1.52;100.00;95110.67;105903;1304;22496;-82
2022/12/11 11:25:31;;;;;;;7.70;5.40;;;;;;;-1.44;100.00;95108.42;105935;1285;24020;-82
2022/12/11 11:28:05;;;;;;;7.80;5.80;;;;;;;-1.38;100.00;95114.83;105910;1296;22496;-82
2022/12/11 11:30:38;;;;;;;10.50;7.40;;;;;;;-1.40;100.00;95117.34;105816;1290;100224;-83
2022/12/11 11:33:13;;;;;;;11.60;7.70;;;;;;;-1.42;99.96;95120.69;105878;1296;22504;-82
2022/12/11 11:35:52;;;;;;;8.20;5.70;;;;;;;-1.55;99.57;95115.58;105742;1304;22462;-82
2022/12/11 11:38:24;;;;;;;10.50;6.50;;;;;;;-1.76;98.83;95116.19;105757;1302;34645;-82